Khartoum International Airport
HSSS : now visible

Airfield :











YOU CAN JOIN US ON...

 
LOGIN :

Register | Disclaimer

   EN    FR    IT 

 









Legend :    VFR   Marginal VFR   IFR   Intensive IFR   Very Intensive IFR
Visi :
Ceiling :
>= 8 km
>= 3000ft
5 to 8 km
1000 to 3000 ft
1500m to 5 km
500 to 1000 ft
800 to 1500m
200 to 500 ft
< 800m
< 200 ft
Symbols :   Thunderstorms  Fog  Heavy snow  Heavy precipitations  Wind > 20 kt







- Airport Elevation : 1265 ft
- IATA code : KRT


HSSS - Khartoum International

CURRENT METAR :
  • 201130Z 36013KT CAVOK 29/02 Q1013 NOSIG

EXPIRED METARs :
  • 201100Z 36010KT CAVOK 28/02 Q1013 NOSIG
  • 201030Z 03010KT CAVOK 28/02 Q1014 NOSIG
  • 201000Z 04012KT CAVOK 27/03 Q1014 NOSIG
  • 200930Z 06010KT CAVOK 26/03 Q1015 NOSIG
  • 200900Z 04010KT CAVOK 25/03 Q1015 NOSIG

TAF TAF HSSS
Valid from the 20 at 12:00 until the 21 at 18:00 UTC


201100Z 2012/2118 04010G20KT CAVOK
HSSS FIR / Africa



MET'MAP, your aeronautical weather chart ! - Copyright ORBIFLY December 2007 - Disclaimer

ORBIFLY MET'MAP TEAM :

Programming & Development : Alexandra Zaïnal
Concept & Development : Baudouin d'Aumeries
Co-Development & Prog : Marc-Olivier Méhu
Technical & hardware support : Manuel Goepfert

Contact : metmap@orbifly.com




SOURCES & CREDITS :

   NOAA       Earth
Advisory